sensor_id;sensor_type;location;lat;lon;timestamp;temperature;humidity
4097;DHT22;2062;50.694;7.246;2023-11-19T00:01:10;10.60;78.70
4097;DHT22;2062;50.694;7.246;2023-11-19T00:03:36;10.70;78.80
4097;DHT22;2062;50.694;7.246;2023-11-19T00:06:05;10.70;78.90
4097;DHT22;2062;50.694;7.246;2023-11-19T00:08:32;10.70;78.90
4097;DHT22;2062;50.694;7.246;2023-11-19T00:10:59;10.70;79.00
4097;DHT22;2062;50.694;7.246;2023-11-19T00:13:26;10.80;79.10
4097;DHT22;2062;50.694;7.246;2023-11-19T00:15:53;10.70;79.00
4097;DHT22;2062;50.694;7.246;2023-11-19T00:18:20;10.70;79.00
4097;DHT22;2062;50.694;7.246;2023-11-19T00:20:47;10.80;79.10
4097;DHT22;2062;50.694;7.246;2023-11-19T00:23:15;10.80;79.20
4097;DHT22;2062;50.694;7.246;2023-11-19T00:25:42;10.80;79.20
4097;DHT22;2062;50.694;7.246;2023-11-19T00:28:09;10.80;79.30
4097;DHT22;2062;50.694;7.246;2023-11-19T00:30:36;10.80;79.40
4097;DHT22;2062;50.694;7.246;2023-11-19T00:33:03;10.80;79.40
4097;DHT22;2062;50.694;7.246;2023-11-19T00:35:30;10.80;79.30
4097;DHT22;2062;50.694;7.246;2023-11-19T00:37:58;10.80;79.60
4097;DHT22;2062;50.694;7.246;2023-11-19T00:40:27;10.80;79.60
4097;DHT22;2062;50.694;7.246;2023-11-19T00:42:54;10.80;79.50
4097;DHT22;2062;50.694;7.246;2023-11-19T00:45:20;10.80;79.50
4097;DHT22;2062;50.694;7.246;2023-11-19T00:47:47;10.90;79.70
4097;DHT22;2062;50.694;7.246;2023-11-19T00:50:14;10.90;79.60
4097;DHT22;2062;50.694;7.246;2023-11-19T00:52:40;10.90;79.60
4097;DHT22;2062;50.694;7.246;2023-11-19T00:55:07;10.90;79.70
4097;DHT22;2062;50.694;7.246;2023-11-19T00:57:35;10.90;79.60
4097;DHT22;2062;50.694;7.246;2023-11-19T01:00:02;11.00;79.70
4097;DHT22;2062;50.694;7.246;2023-11-19T01:02:34;10.90;79.70
4097;DHT22;2062;50.694;7.246;2023-11-19T01:05:01;10.90;79.80
4097;DHT22;2062;50.694;7.246;2023-11-19T01:07:28;10.90;79.80
4097;DHT22;2062;50.694;7.246;2023-11-19T01:09:54;10.90;79.70
4097;DHT22;2062;50.694;7.246;2023-11-19T01:12:21;10.90;79.80
4097;DHT22;2062;50.694;7.246;2023-11-19T01:14:49;11.00;79.70
4097;DHT22;2062;50.694;7.246;2023-11-19T01:17:16;11.00;79.70
4097;DHT22;2062;50.694;7.246;2023-11-19T01:19:43;11.00;79.60
4097;DHT22;2062;50.694;7.246;2023-11-19T01:22:10;11.00;79.70
4097;DHT22;2062;50.694;7.246;2023-11-19T01:24:36;11.00;79.90
4097;DHT22;2062;50.694;7.246;2023-11-19T01:27:03;11.00;80.00
4097;DHT22;2062;50.694;7.246;2023-11-19T01:29:30;11.00;80.80
4097;DHT22;2062;50.694;7.246;2023-11-19T01:31:58;11.10;80.00
4097;DHT22;2062;50.694;7.246;2023-11-19T01:34:25;11.00;79.80
4097;DHT22;2062;50.694;7.246;2023-11-19T01:36:52;11.00;79.90
4097;DHT22;2062;50.694;7.246;2023-11-19T01:39:18;11.00;80.00
4097;DHT22;2062;50.694;7.246;2023-11-19T01:41:46;11.10;80.00
4097;DHT22;2062;50.694;7.246;2023-11-19T01:44:13;11.10;80.10
4097;DHT22;2062;50.694;7.246;2023-11-19T01:46:41;11.10;80.10
4097;DHT22;2062;50.694;7.246;2023-11-19T01:49:10;11.10;80.10
4097;DHT22;2062;50.694;7.246;2023-11-19T01:51:38;11.10;80.00
4097;DHT22;2062;50.694;7.246;2023-11-19T01:54:06;11.10;80.20
4097;DHT22;2062;50.694;7.246;2023-11-19T01:56:34;11.10;80.30
4097;DHT22;2062;50.694;7.246;2023-11-19T01:59:02;11.10;80.20
4097;DHT22;2062;50.694;7.246;2023-11-19T02:01:29;11.10;80.10
4097;DHT22;2062;50.694;7.246;2023-11-19T02:03:58;11.10;80.10
4097;DHT22;2062;50.694;7.246;2023-11-19T02:06:27;11.20;80.10
4097;DHT22;2062;50.694;7.246;2023-11-19T02:08:54;11.20;80.10
4097;DHT22;2062;50.694;7.246;2023-11-19T02:11:21;11.20;80.10
4097;DHT22;2062;50.694;7.246;2023-11-19T02:13:48;11.20;80.30
4097;DHT22;2062;50.694;7.246;2023-11-19T02:16:14;11.20;80.20
4097;DHT22;2062;50.694;7.246;2023-11-19T02:18:41;11.20;80.30
4097;DHT22;2062;50.694;7.246;2023-11-19T02:21:08;11.20;80.20
4097;DHT22;2062;50.694;7.246;2023-11-19T02:23:37;11.20;80.20
4097;DHT22;2062;50.694;7.246;2023-11-19T02:26:12;11.30;80.50
4097;DHT22;2062;50.694;7.246;2023-11-19T02:28:42;11.30;80.50
4097;DHT22;2062;50.694;7.246;2023-11-19T02:31:09;11.30;80.50
4097;DHT22;2062;50.694;7.246;2023-11-19T02:33:36;11.30;80.40
4097;DHT22;2062;50.694;7.246;2023-11-19T02:36:04;11.30;80.60
4097;DHT22;2062;50.694;7.246;2023-11-19T02:38:32;11.30;80.50
4097;DHT22;2062;50.694;7.246;2023-11-19T02:41:00;11.30;80.60
4097;DHT22;2062;50.694;7.246;2023-11-19T02:43:30;11.30;80.40
4097;DHT22;2062;50.694;7.246;2023-11-19T02:46:00;11.30;80.30
4097;DHT22;2062;50.694;7.246;2023-11-19T02:48:27;11.40;80.40
4097;DHT22;2062;50.694;7.246;2023-11-19T02:50:54;11.30;80.30
4097;DHT22;2062;50.694;7.246;2023-11-19T02:53:23;11.40;80.30
4097;DHT22;2062;50.694;7.246;2023-11-19T02:55:53;11.40;80.30
4097;DHT22;2062;50.694;7.246;2023-11-19T02:58:26;11.40;80.20
4097;DHT22;2062;50.694;7.246;2023-11-19T03:00:54;11.40;80.20
4097;DHT22;2062;50.694;7.246;2023-11-19T03:03:27;11.30;80.30
4097;DHT22;2062;50.694;7.246;2023-11-19T03:06:04;11.40;80.30
4097;DHT22;2062;50.694;7.246;2023-11-19T03:08:31;11.40;80.30
4097;DHT22;2062;50.694;7.246;2023-11-19T03:10:58;11.40;80.30
4097;DHT22;2062;50.694;7.246;2023-11-19T03:13:24;11.40;80.30
4097;DHT22;2062;50.694;7.246;2023-11-19T03:15:52;11.40;80.20
4097;DHT22;2062;50.694;7.246;2023-11-19T03:18:19;11.40;80.30
4097;DHT22;2062;50.694;7.246;2023-11-19T03:20:47;11.40;80.20
4097;DHT22;2062;50.694;7.246;2023-11-19T03:23:15;11.50;80.50
4097;DHT22;2062;50.694;7.246;2023-11-19T03:25:42;11.40;80.30
4097;DHT22;2062;50.694;7.246;2023-11-19T03:28:09;11.40;80.30
4097;DHT22;2062;50.694;7.246;2023-11-19T03:30:36;11.40;80.20
4097;DHT22;2062;50.694;7.246;2023-11-19T03:33:03;11.50;80.40
4097;DHT22;2062;50.694;7.246;2023-11-19T03:35:30;11.40;80.20
4097;DHT22;2062;50.694;7.246;2023-11-19T03:38:00;11.50;80.40
4097;DHT22;2062;50.694;7.246;2023-11-19T03:40:28;11.40;80.20
4097;DHT22;2062;50.694;7.246;2023-11-19T03:42:55;11.50;80.30
4097;DHT22;2062;50.694;7.246;2023-11-19T03:45:22;11.50;80.20
4097;DHT22;2062;50.694;7.246;2023-11-19T03:47:50;11.40;80.00
4097;DHT22;2062;50.694;7.246;2023-11-19T03:50:17;11.40;80.00
4097;DHT22;2062;50.694;7.246;2023-11-19T03:52:45;11.40;79.90
4097;DHT22;2062;50.694;7.246;2023-11-19T03:55:13;11.40;79.90
4097;DHT22;2062;50.694;7.246;2023-11-19T03:57:40;11.40;79.80
4097;DHT22;2062;50.694;7.246;2023-11-19T04:00:08;11.50;79.90
4097;DHT22;2062;50.694;7.246;2023-11-19T04:02:35;11.40;79.70
4097;DHT22;2062;50.694;7.246;2023-11-19T04:05:02;11.40;79.90
4097;DHT22;2062;50.694;7.246;2023-11-19T04:07:29;11.40;80.30
4097;DHT22;2062;50.694;7.246;2023-11-19T04:09:57;11.40;80.00
4097;DHT22;2062;50.694;7.246;2023-11-19T04:12:25;11.40;80.00
4097;DHT22;2062;50.694;7.246;2023-11-19T04:14:52;11.50;80.20
4097;DHT22;2062;50.694;7.246;2023-11-19T04:17:18;11.40;80.10
4097;DHT22;2062;50.694;7.246;2023-11-19T04:19:45;11.50;80.30
4097;DHT22;2062;50.694;7.246;2023-11-19T04:22:12;11.50;80.20
4097;DHT22;2062;50.694;7.246;2023-11-19T04:24:40;11.50;80.20
4097;DHT22;2062;50.694;7.246;2023-11-19T04:27:09;11.50;80.20
4097;DHT22;2062;50.694;7.246;2023-11-19T04:29:37;11.50;80.20
4097;DHT22;2062;50.694;7.246;2023-11-19T04:32:05;11.50;80.20
4097;DHT22;2062;50.694;7.246;2023-11-19T04:34:32;11.50;80.10
4097;DHT22;2062;50.694;7.246;2023-11-19T04:36:59;11.60;80.10
4097;DHT22;2062;50.694;7.246;2023-11-19T04:39:27;11.60;80.00
4097;DHT22;2062;50.694;7.246;2023-11-19T04:41:54;11.60;80.10
4097;DHT22;2062;50.694;7.246;2023-11-19T04:44:21;11.60;80.10
4097;DHT22;2062;50.694;7.246;2023-11-19T04:46:49;11.60;79.90
4097;DHT22;2062;50.694;7.246;2023-11-19T04:49:16;11.60;79.90
4097;DHT22;2062;50.694;7.246;2023-11-19T04:51:45;11.60;79.80
4097;DHT22;2062;50.694;7.246;2023-11-19T04:54:12;11.60;79.60
4097;DHT22;2062;50.694;7.246;2023-11-19T04:56:39;11.70;79.70
4097;DHT22;2062;50.694;7.246;2023-11-19T04:59:06;11.70;79.60
4097;DHT22;2062;50.694;7.246;2023-11-19T05:01:34;11.70;79.50
4097;DHT22;2062;50.694;7.246;2023-11-19T05:04:03;11.60;79.30
4097;DHT22;2062;50.694;7.246;2023-11-19T05:06:30;11.70;79.30
4097;DHT22;2062;50.694;7.246;2023-11-19T05:08:59;11.60;79.10
4097;DHT22;2062;50.694;7.246;2023-11-19T05:11:29;11.60;79.10
4097;DHT22;2062;50.694;7.246;2023-11-19T05:13:55;11.60;79.00
4097;DHT22;2062;50.694;7.246;2023-11-19T05:16:22;11.70;79.20
4097;DHT22;2062;50.694;7.246;2023-11-19T05:18:49;11.60;79.00
4097;DHT22;2062;50.694;7.246;2023-11-19T05:21:18;11.60;79.00
4097;DHT22;2062;50.694;7.246;2023-11-19T05:23:45;11.60;79.00
4097;DHT22;2062;50.694;7.246;2023-11-19T05:26:18;11.60;78.90
4097;DHT22;2062;50.694;7.246;2023-11-19T05:28:45;11.60;78.80
4097;DHT22;2062;50.694;7.246;2023-11-19T05:31:12;11.70;78.80
4097;DHT22;2062;50.694;7.246;2023-11-19T05:33:39;11.60;78.70
4097;DHT22;2062;50.694;7.246;2023-11-19T05:36:06;11.60;78.60
4097;DHT22;2062;50.694;7.246;2023-11-19T05:38:35;11.60;78.60
4097;DHT22;2062;50.694;7.246;2023-11-19T05:41:02;11.60;78.50
4097;DHT22;2062;50.694;7.246;2023-11-19T05:43:30;11.60;78.40
4097;DHT22;2062;50.694;7.246;2023-11-19T05:45:57;11.60;78.30
4097;DHT22;2062;50.694;7.246;2023-11-19T05:48:25;11.70;78.40
4097;DHT22;2062;50.694;7.246;2023-11-19T05:50:53;11.60;78.20
4097;DHT22;2062;50.694;7.246;2023-11-19T05:53:20;11.60;79.00
4097;DHT22;2062;50.694;7.246;2023-11-19T05:55:49;11.60;78.10
4097;DHT22;2062;50.694;7.246;2023-11-19T05:58:23;11.60;78.00
4097;DHT22;2062;50.694;7.246;2023-11-19T06:00:51;11.60;77.90
4097;DHT22;2062;50.694;7.246;2023-11-19T06:03:17;11.60;77.90
4097;DHT22;2062;50.694;7.246;2023-11-19T06:05:44;11.60;77.90
4097;DHT22;2062;50.694;7.246;2023-11-19T06:08:12;11.60;77.80
4097;DHT22;2062;50.694;7.246;2023-11-19T06:10:40;11.60;77.80
4097;DHT22;2062;50.694;7.246;2023-11-19T06:13:08;11.60;77.70
4097;DHT22;2062;50.694;7.246;2023-11-19T06:15:35;11.60;77.70
4097;DHT22;2062;50.694;7.246;2023-11-19T06:18:03;11.60;77.50
4097;DHT22;2062;50.694;7.246;2023-11-19T06:20:29;11.60;77.50
4097;DHT22;2062;50.694;7.246;2023-11-19T06:22:57;11.70;77.70
4097;DHT22;2062;50.694;7.246;2023-11-19T06:25:24;11.70;77.60
4097;DHT22;2062;50.694;7.246;2023-11-19T06:27:51;11.70;77.50
4097;DHT22;2062;50.694;7.246;2023-11-19T06:30:19;11.70;77.50
4097;DHT22;2062;50.694;7.246;2023-11-19T06:32:46;11.70;77.40
4097;DHT22;2062;50.694;7.246;2023-11-19T06:35:13;11.70;77.40
4097;DHT22;2062;50.694;7.246;2023-11-19T06:37:40;11.80;77.40
4097;DHT22;2062;50.694;7.246;2023-11-19T06:40:08;11.70;77.40
4097;DHT22;2062;50.694;7.246;2023-11-19T06:42:35;11.70;77.30
4097;DHT22;2062;50.694;7.246;2023-11-19T06:45:02;11.70;77.30
4097;DHT22;2062;50.694;7.246;2023-11-19T06:47:30;11.70;77.20
4097;DHT22;2062;50.694;7.246;2023-11-19T06:49:57;11.70;77.10
4097;DHT22;2062;50.694;7.246;2023-11-19T06:52:24;11.70;76.90
4097;DHT22;2062;50.694;7.246;2023-11-19T06:54:51;11.70;76.70
4097;DHT22;2062;50.694;7.246;2023-11-19T06:57:18;11.70;76.60
4097;DHT22;2062;50.694;7.246;2023-11-19T06:59:45;11.70;76.40
4097;DHT22;2062;50.694;7.246;2023-11-19T07:02:12;11.70;76.20
4097;DHT22;2062;50.694;7.246;2023-11-19T07:04:41;11.60;75.90
4097;DHT22;2062;50.694;7.246;2023-11-19T07:07:08;11.60;75.60
4097;DHT22;2062;50.694;7.246;2023-11-19T07:09:35;11.60;75.60
4097;DHT22;2062;50.694;7.246;2023-11-19T07:12:03;11.60;75.20
4097;DHT22;2062;50.694;7.246;2023-11-19T07:14:30;11.50;75.10
4097;DHT22;2062;50.694;7.246;2023-11-19T07:16:57;11.50;75.00
4097;DHT22;2062;50.694;7.246;2023-11-19T07:19:24;11.50;74.90
4097;DHT22;2062;50.694;7.246;2023-11-19T07:21:52;11.40;74.90
4097;DHT22;2062;50.694;7.246;2023-11-19T07:24:19;11.40;74.90
4097;DHT22;2062;50.694;7.246;2023-11-19T07:26:47;11.30;74.70
4097;DHT22;2062;50.694;7.246;2023-11-19T07:29:14;11.30;74.70
4097;DHT22;2062;50.694;7.246;2023-11-19T07:31:41;11.30;74.70
4097;DHT22;2062;50.694;7.246;2023-11-19T07:34:09;11.30;74.60
4097;DHT22;2062;50.694;7.246;2023-11-19T07:36:37;11.30;74.60
4097;DHT22;2062;50.694;7.246;2023-11-19T07:39:05;11.30;74.70
4097;DHT22;2062;50.694;7.246;2023-11-19T07:41:32;11.30;74.70
4097;DHT22;2062;50.694;7.246;2023-11-19T07:43:59;11.30;74.70
4097;DHT22;2062;50.694;7.246;2023-11-19T07:46:26;11.30;74.70
4097;DHT22;2062;50.694;7.246;2023-11-19T07:48:53;11.30;74.90
4097;DHT22;2062;50.694;7.246;2023-11-19T07:51:19;11.30;74.90
4097;DHT22;2062;50.694;7.246;2023-11-19T07:53:47;11.20;74.70
4097;DHT22;2062;50.694;7.246;2023-11-19T07:56:16;11.30;74.90
4097;DHT22;2062;50.694;7.246;2023-11-19T07:58:42;11.30;75.00
4097;DHT22;2062;50.694;7.246;2023-11-19T08:01:09;11.30;75.00
4097;DHT22;2062;50.694;7.246;2023-11-19T08:03:36;11.30;74.90
4097;DHT22;2062;50.694;7.246;2023-11-19T08:06:04;11.40;74.90
4097;DHT22;2062;50.694;7.246;2023-11-19T08:08:30;11.30;75.80
4097;DHT22;2062;50.694;7.246;2023-11-19T08:10:58;11.30;74.90
4097;DHT22;2062;50.694;7.246;2023-11-19T08:13:27;11.30;75.00
4097;DHT22;2062;50.694;7.246;2023-11-19T08:15:53;11.40;75.00
4097;DHT22;2062;50.694;7.246;2023-11-19T08:18:20;11.40;75.00
4097;DHT22;2062;50.694;7.246;2023-11-19T08:20:47;11.50;75.30
4097;DHT22;2062;50.694;7.246;2023-11-19T08:23:18;11.50;75.40
4097;DHT22;2062;50.694;7.246;2023-11-19T08:25:45;11.50;75.30
4097;DHT22;2062;50.694;7.246;2023-11-19T08:28:11;11.50;75.40
4097;DHT22;2062;50.694;7.246;2023-11-19T08:30:40;11.60;75.30
4097;DHT22;2062;50.694;7.246;2023-11-19T08:33:06;11.60;75.20
4097;DHT22;2062;50.694;7.246;2023-11-19T08:35:33;11.60;75.20
4097;DHT22;2062;50.694;7.246;2023-11-19T08:38:00;11.70;75.40
4097;DHT22;2062;50.694;7.246;2023-11-19T08:40:27;11.70;75.30
4097;DHT22;2062;50.694;7.246;2023-11-19T08:42:55;11.70;75.20
4097;DHT22;2062;50.694;7.246;2023-11-19T08:45:22;11.70;75.30
4097;DHT22;2062;50.694;7.246;2023-11-19T08:47:50;11.80;75.00
4097;DHT22;2062;50.694;7.246;2023-11-19T08:50:17;11.90;75.10
4097;DHT22;2062;50.694;7.246;2023-11-19T08:52:44;11.80;75.00
4097;DHT22;2062;50.694;7.246;2023-11-19T08:55:10;11.90;75.20
4097;DHT22;2062;50.694;7.246;2023-11-19T08:57:39;11.90;75.10
4097;DHT22;2062;50.694;7.246;2023-11-19T09:00:07;11.90;75.00
4097;DHT22;2062;50.694;7.246;2023-11-19T09:02:34;12.00;75.00
4097;DHT22;2062;50.694;7.246;2023-11-19T09:05:04;12.00;75.00
4097;DHT22;2062;50.694;7.246;2023-11-19T09:07:32;12.10;74.90
4097;DHT22;2062;50.694;7.246;2023-11-19T09:09:59;12.20;74.70
4097;DHT22;2062;50.694;7.246;2023-11-19T09:12:26;12.10;74.20
4097;DHT22;2062;50.694;7.246;2023-11-19T09:14:53;12.20;74.10
4097;DHT22;2062;50.694;7.246;2023-11-19T09:17:20;12.20;74.10
4097;DHT22;2062;50.694;7.246;2023-11-19T09:19:46;12.20;73.80
4097;DHT22;2062;50.694;7.246;2023-11-19T09:22:14;12.30;73.90
4097;DHT22;2062;50.694;7.246;2023-11-19T09:24:41;12.30;74.00
4097;DHT22;2062;50.694;7.246;2023-11-19T09:27:09;12.30;74.40
4097;DHT22;2062;50.694;7.246;2023-11-19T09:29:36;12.40;73.90
4097;DHT22;2062;50.694;7.246;2023-11-19T09:32:04;12.40;74.20
4097;DHT22;2062;50.694;7.246;2023-11-19T09:34:31;12.50;74.10
4097;DHT22;2062;50.694;7.246;2023-11-19T09:36:58;12.50;75.20
4097;DHT22;2062;50.694;7.246;2023-11-19T09:39:26;12.60;74.10
4097;DHT22;2062;50.694;7.246;2023-11-19T09:41:53;12.70;74.30
4097;DHT22;2062;50.694;7.246;2023-11-19T09:44:20;12.70;74.10
4097;DHT22;2062;50.694;7.246;2023-11-19T09:46:47;12.80;74.20
4097;DHT22;2062;50.694;7.246;2023-11-19T09:49:14;12.90;74.50
4097;DHT22;2062;50.694;7.246;2023-11-19T09:51:44;13.00;74.30
4097;DHT22;2062;50.694;7.246;2023-11-19T09:54:11;13.10;74.10
4097;DHT22;2062;50.694;7.246;2023-11-19T09:56:40;13.20;73.90
4097;DHT22;2062;50.694;7.246;2023-11-19T09:59:08;13.30;74.20
4097;DHT22;2062;50.694;7.246;2023-11-19T10:01:37;13.40;73.60
4097;DHT22;2062;50.694;7.246;2023-11-19T10:04:05;13.50;73.60
4097;DHT22;2062;50.694;7.246;2023-11-19T10:06:33;13.70;73.90
4097;DHT22;2062;50.694;7.246;2023-11-19T10:09:00;13.70;73.30
4097;DHT22;2062;50.694;7.246;2023-11-19T10:11:27;13.80;72.80
4097;DHT22;2062;50.694;7.246;2023-11-19T10:13:55;13.80;72.80
4097;DHT22;2062;50.694;7.246;2023-11-19T10:16:28;13.90;72.60
4097;DHT22;2062;50.694;7.246;2023-11-19T10:18:56;14.00;72.00
4097;DHT22;2062;50.694;7.246;2023-11-19T10:21:24;14.10;71.90
4097;DHT22;2062;50.694;7.246;2023-11-19T10:23:54;14.10;71.90
4097;DHT22;2062;50.694;7.246;2023-11-19T10:26:23;14.20;71.60
4097;DHT22;2062;50.694;7.246;2023-11-19T10:28:50;14.30;71.50
4097;DHT22;2062;50.694;7.246;2023-11-19T10:31:19;14.30;71.10
4097;DHT22;2062;50.694;7.246;2023-11-19T10:33:50;14.30;71.00
4097;DHT22;2062;50.694;7.246;2023-11-19T10:36:17;14.30;70.70
4097;DHT22;2062;50.694;7.246;2023-11-19T10:38:52;14.30;70.30
4097;DHT22;2062;50.694;7.246;2023-11-19T10:41:29;14.40;69.80
4097;DHT22;2062;50.694;7.246;2023-11-19T10:43:57;14.40;69.30
4097;DHT22;2062;50.694;7.246;2023-11-19T10:46:36;14.40;69.50
4097;DHT22;2062;50.694;7.246;2023-11-19T10:49:04;14.30;69.00
4097;DHT22;2062;50.694;7.246;2023-11-19T10:51:32;14.30;68.40
4097;DHT22;2062;50.694;7.246;2023-11-19T10:54:02;14.20;68.10
4097;DHT22;2062;50.694;7.246;2023-11-19T10:56:31;14.20;68.20
4097;DHT22;2062;50.694;7.246;2023-11-19T10:58:59;14.20;67.80
4097;DHT22;2062;50.694;7.246;2023-11-19T11:01:32;14.20;68.30
4097;DHT22;2062;50.694;7.246;2023-11-19T11:04:00;14.10;68.00
4097;DHT22;2062;50.694;7.246;2023-11-19T11:06:29;14.10;67.90
4097;DHT22;2062;50.694;7.246;2023-11-19T11:08:56;14.10;68.10
4097;DHT22;2062;50.694;7.246;2023-11-19T11:11:24;14.10;68.30
4097;DHT22;2062;50.694;7.246;2023-11-19T11:13:53;14.10;68.20
4097;DHT22;2062;50.694;7.246;2023-11-19T11:16:22;14.00;68.30
4097;DHT22;2062;50.694;7.246;2023-11-19T11:18:52;14.10;68.60
4097;DHT22;2062;50.694;7.246;2023-11-19T11:21:22;14.10;68.60
4097;DHT22;2062;50.694;7.246;2023-11-19T11:27:22;14.10;68.30
4097;DHT22;2062;50.694;7.246;2023-11-19T11:30:02;14.10;67.80
4097;DHT22;2062;50.694;7.246;2023-11-19T11:32:35;14.10;68.10
4097;DHT22;2062;50.694;7.246;2023-11-19T11:35:23;14.10;67.70
4097;DHT22;2062;50.694;7.246;2023-11-19T11:37:55;14.10;67.10
4097;DHT22;2062;50.694;7.246;2023-11-19T11:40:27;14.10;67.30
4097;DHT22;2062;50.694;7.246;2023-11-19T11:42:53;14.00;67.10
4097;DHT22;2062;50.694;7.246;2023-11-19T11:45:35;14.00;66.80
4097;DHT22;2062;50.694;7.246;2023-11-19T11:48:11;14.00;65.40
4097;DHT22;2062;50.694;7.246;2023-11-19T11:50:53;14.00;66.40
4097;DHT22;2062;50.694;7.246;2023-11-19T11:53:21;13.90;64.50
4097;DHT22;2062;50.694;7.246;2023-11-19T11:55:54;13.90;65.90
4097;DHT22;2062;50.694;7.246;2023-11-19T11:58:25;13.80;66.00
4097;DHT22;2062;50.694;7.246;2023-11-19T12:00:52;13.80;66.60
4097;DHT22;2062;50.694;7.246;2023-11-19T12:03:21;13.80;67.00
4097;DHT22;2062;50.694;7.246;2023-11-19T12:05:48;13.70;67.00
4097;DHT22;2062;50.694;7.246;2023-11-19T12:08:20;13.70;67.30
4097;DHT22;2062;50.694;7.246;2023-11-19T12:10:52;13.60;67.50
4097;DHT22;2062;50.694;7.246;2023-11-19T12:13:20;13.50;67.70
4097;DHT22;2062;50.694;7.246;2023-11-19T12:16:08;13.50;67.70
4097;DHT22;2062;50.694;7.246;2023-11-19T12:18:39;13.40;68.00
4097;DHT22;2062;50.694;7.246;2023-11-19T12:21:07;13.30;68.20
4097;DHT22;2062;50.694;7.246;2023-11-19T12:23:47;13.30;68.60
4097;DHT22;2062;50.694;7.246;2023-11-19T12:26:36;13.30;68.60
4097;DHT22;2062;50.694;7.246;2023-11-19T12:29:03;13.30;68.90
4097;DHT22;2062;50.694;7.246;2023-11-19T12:31:32;13.20;69.00
4097;DHT22;2062;50.694;7.246;2023-11-19T12:34:08;13.20;69.20
4097;DHT22;2062;50.694;7.246;2023-11-19T12:36:38;13.10;69.60
4097;DHT22;2062;50.694;7.246;2023-11-19T12:39:06;13.10;69.70
4097;DHT22;2062;50.694;7.246;2023-11-19T12:41:49;13.10;69.90
4097;DHT22;2062;50.694;7.246;2023-11-19T12:44:16;13.10;70.00
4097;DHT22;2062;50.694;7.246;2023-11-19T12:46:43;13.00;69.70
4097;DHT22;2062;50.694;7.246;2023-11-19T12:49:11;13.00;69.80
4097;DHT22;2062;50.694;7.246;2023-11-19T12:51:38;13.00;69.80
4097;DHT22;2062;50.694;7.246;2023-11-19T12:54:06;13.00;69.90
4097;DHT22;2062;50.694;7.246;2023-11-19T12:56:33;12.90;69.90
4097;DHT22;2062;50.694;7.246;2023-11-19T12:59:10;12.90;70.30
4097;DHT22;2062;50.694;7.246;2023-11-19T13:01:38;12.90;70.10
4097;DHT22;2062;50.694;7.246;2023-11-19T13:04:16;12.90;70.30
4097;DHT22;2062;50.694;7.246;2023-11-19T13:06:45;12.80;70.30
4097;DHT22;2062;50.694;7.246;2023-11-19T13:09:22;12.80;70.40
4097;DHT22;2062;50.694;7.246;2023-11-19T13:11:50;12.80;70.40
4097;DHT22;2062;50.694;7.246;2023-11-19T13:14:17;12.80;70.20
4097;DHT22;2062;50.694;7.246;2023-11-19T13:16:44;12.70;70.30
4097;DHT22;2062;50.694;7.246;2023-11-19T13:19:12;12.70;70.30
4097;DHT22;2062;50.694;7.246;2023-11-19T13:21:38;12.70;70.50
4097;DHT22;2062;50.694;7.246;2023-11-19T13:24:06;12.60;70.50
4097;DHT22;2062;50.694;7.246;2023-11-19T13:26:34;12.60;70.70
4097;DHT22;2062;50.694;7.246;2023-11-19T13:29:01;12.60;70.70
4097;DHT22;2062;50.694;7.246;2023-11-19T13:31:27;12.60;70.90
4097;DHT22;2062;50.694;7.246;2023-11-19T13:33:54;12.50;71.10
4097;DHT22;2062;50.694;7.246;2023-11-19T13:36:22;12.50;71.30
4097;DHT22;2062;50.694;7.246;2023-11-19T13:38:49;12.50;71.50
4097;DHT22;2062;50.694;7.246;2023-11-19T13:41:15;12.40;71.60
4097;DHT22;2062;50.694;7.246;2023-11-19T13:43:44;12.40;71.70
4097;DHT22;2062;50.694;7.246;2023-11-19T13:46:11;12.50;72.40
4097;DHT22;2062;50.694;7.246;2023-11-19T13:48:37;12.50;72.50
4097;DHT22;2062;50.694;7.246;2023-11-19T13:51:05;12.50;72.50
4097;DHT22;2062;50.694;7.246;2023-11-19T13:53:32;12.50;72.50
4097;DHT22;2062;50.694;7.246;2023-11-19T13:55:58;12.50;72.40
4097;DHT22;2062;50.694;7.246;2023-11-19T13:58:25;12.50;72.20
4097;DHT22;2062;50.694;7.246;2023-11-19T14:00:53;12.50;72.10
4097;DHT22;2062;50.694;7.246;2023-11-19T14:03:20;12.50;72.10
4097;DHT22;2062;50.694;7.246;2023-11-19T14:05:47;12.50;71.90
4097;DHT22;2062;50.694;7.246;2023-11-19T14:08:17;12.50;72.10
4097;DHT22;2062;50.694;7.246;2023-11-19T14:10:44;12.50;72.10
4097;DHT22;2062;50.694;7.246;2023-11-19T14:13:11;12.60;71.80
4097;DHT22;2062;50.694;7.246;2023-11-19T14:15:38;12.60;71.70
4097;DHT22;2062;50.694;7.246;2023-11-19T14:18:06;12.60;71.50
4097;DHT22;2062;50.694;7.246;2023-11-19T14:20:33;12.60;72.20
4097;DHT22;2062;50.694;7.246;2023-11-19T14:23:01;12.70;71.50
4097;DHT22;2062;50.694;7.246;2023-11-19T14:25:28;12.60;71.10
4097;DHT22;2062;50.694;7.246;2023-11-19T14:27:55;12.70;71.10
4097;DHT22;2062;50.694;7.246;2023-11-19T14:30:22;12.70;71.10
4097;DHT22;2062;50.694;7.246;2023-11-19T14:32:48;12.70;71.00
4097;DHT22;2062;50.694;7.246;2023-11-19T14:35:16;12.70;70.60
4097;DHT22;2062;50.694;7.246;2023-11-19T14:37:43;12.70;70.60
4097;DHT22;2062;50.694;7.246;2023-11-19T14:40:11;12.70;70.40
4097;DHT22;2062;50.694;7.246;2023-11-19T14:42:38;12.70;70.30
4097;DHT22;2062;50.694;7.246;2023-11-19T14:45:06;12.70;70.20
4097;DHT22;2062;50.694;7.246;2023-11-19T14:47:37;12.60;69.80
4097;DHT22;2062;50.694;7.246;2023-11-19T14:50:05;12.60;69.70
4097;DHT22;2062;50.694;7.246;2023-11-19T14:52:34;12.60;69.80
4097;DHT22;2062;50.694;7.246;2023-11-19T14:55:01;12.60;70.00
4097;DHT22;2062;50.694;7.246;2023-11-19T14:57:28;12.60;69.80
4097;DHT22;2062;50.694;7.246;2023-11-19T14:59:55;12.50;69.90
4097;DHT22;2062;50.694;7.246;2023-11-19T15:02:21;12.50;69.80
4097;DHT22;2062;50.694;7.246;2023-11-19T15:04:48;12.50;69.70
4097;DHT22;2062;50.694;7.246;2023-11-19T15:07:15;12.50;69.80
4097;DHT22;2062;50.694;7.246;2023-11-19T15:09:43;12.40;69.50
4097;DHT22;2062;50.694;7.246;2023-11-19T15:12:11;12.40;68.90
4097;DHT22;2062;50.694;7.246;2023-11-19T15:14:37;12.40;69.30
4097;DHT22;2062;50.694;7.246;2023-11-19T15:17:04;12.40;69.20
4097;DHT22;2062;50.694;7.246;2023-11-19T15:19:32;12.30;69.00
4097;DHT22;2062;50.694;7.246;2023-11-19T15:21:59;12.30;69.20
4097;DHT22;2062;50.694;7.246;2023-11-19T15:24:27;12.30;69.10
4097;DHT22;2062;50.694;7.246;2023-11-19T15:26:55;12.20;68.90
4097;DHT22;2062;50.694;7.246;2023-11-19T15:29:23;12.30;69.00
4097;DHT22;2062;50.694;7.246;2023-11-19T15:31:49;12.20;68.80
4097;DHT22;2062;50.694;7.246;2023-11-19T15:34:16;12.20;68.90
4097;DHT22;2062;50.694;7.246;2023-11-19T15:36:44;12.20;68.90
4097;DHT22;2062;50.694;7.246;2023-11-19T15:39:12;12.20;68.90
4097;DHT22;2062;50.694;7.246;2023-11-19T15:41:39;12.20;69.00
4097;DHT22;2062;50.694;7.246;2023-11-19T15:44:07;12.20;69.20
4097;DHT22;2062;50.694;7.246;2023-11-19T15:46:34;12.10;69.00
4097;DHT22;2062;50.694;7.246;2023-11-19T15:49:00;12.10;69.10
4097;DHT22;2062;50.694;7.246;2023-11-19T15:51:28;12.10;68.80
4097;DHT22;2062;50.694;7.246;2023-11-19T15:53:55;12.10;69.10
4097;DHT22;2062;50.694;7.246;2023-11-19T15:56:21;12.10;69.20
4097;DHT22;2062;50.694;7.246;2023-11-19T15:58:48;12.10;69.00
4097;DHT22;2062;50.694;7.246;2023-11-19T16:01:17;12.00;68.70
4097;DHT22;2062;50.694;7.246;2023-11-19T16:03:44;12.00;68.80
4097;DHT22;2062;50.694;7.246;2023-11-19T16:06:11;12.00;68.70
4097;DHT22;2062;50.694;7.246;2023-11-19T16:08:38;12.00;68.70
4097;DHT22;2062;50.694;7.246;2023-11-19T16:11:05;11.90;68.60